Terminal Aerodrome Forecast
Issued by NWS Kansas City/Pleasant Hill, MO

Home | Current Version | Previous Version | Text Only | Print | Product List | Glossary On
Versions: 1 2 3 4 5 6 7 8 9 10 11 12 13 14 15
362
FTUS43 KEAX 240520
TAFMCI
TAF
KMCI 240520Z 2406/2506 15007KT P6SM SKC
     FM241500 16011KT P6SM SCT050 BKN200
     FM242200 16010KT P6SM VCTS BKN050CB
     FM250400 15007KT 5SM -TSRA BR BKN025CB=

USA.gov is the U.S. government's official web portal to all federal, state and local government web resources and services.